Key West, Iowa
Current Conditions -  °F | °C
As of 12:36 AM on Saturday 25 Oct 2014 (Local Time) from KDBQ Reporting Station
Moderate Fog Moderate Fog  
Wind Chill: 58°   Ceiling: 100
Heat Index: 58°   Visibility: 0.5mi
Dew Point: 58°   Wind: 7mph
Humidity: 100%   Direction: 240°WSW
Pressure: 29.92"   Gusts: NA
Location:  42.549°N, 90.6988°W
Report Text: KDBQ 250536Z AUTO 24006KT 1/2SM R36/1600V4000FT FG VV001 14/14 A2992 RMK AO2 T01440144
Loading
Personal Weather Stations






























Interactive Weather Map
Tropical Storm Tracking
New forecast layout! Learn more

10-Day Weather Forecast

Advertisements
Track Severe Weather on mobile